M I D A S
Marine Information and Data Acquisition System
Tripno 1556 of the Zeeleeuw from 2008-09-01 06:18:01 to 2008-09-01 11:25:58
Back to CruiseResearch ActivitiesStationsMapUnderway DataData graphs

EquipmentUnitsComments
TimeDGPSUTC
LatitudeDGPSDM.mWGS84
LongitudeDGPSDM.mWGS84
SpeedMeteo Stationm/sRelative wind speed
DirectionMeteo StationdegRelative wind direction
TemperatureMeteo Stationdeg CelciusAir temperature
PressureMeteo StationPaAtmospheric pressure
HumidityMeteo Station%Relative humidity
Missing or incorrect values are displayed as -999
Metereological data collected by the RV Zeeleeuw from 2008-09-01 06:21:17 to 2008-09-01 11:32:14
Time Latitude Longitude Speed Direction Temperature Pressure Humidity
2008-09-01 06:22 51°13.644 2°55.982 -999 -999 -999 -999 -999
2008-09-01 06:23 51°13.677 2°55.872 -999 -999 -999 -999 -999
2008-09-01 06:24 51°13.703 2°55.783 -999 -999 -999 -999 -999
2008-09-01 06:25 51°13.712 2°55.724 -999 -999 -999 -999 -999
2008-09-01 06:26 51°13.715 2°55.72 -999 -999 -999 -999 -999
2008-09-01 06:27 51°13.727 2°55.704 -999 -999 -999 -999 -999
2008-09-01 06:28 51°13.826 2°55.636 -999 -999 -999 -999 -999
2008-09-01 06:29 51°13.961 2°55.543 3 332 15.7 -999 56
2008-09-01 06:30 51°14.094 2°55.445 9.6 315 16 101390 72
2008-09-01 06:31 51°14.22 2°55.319 12.9 26 16.1 101360 71
2008-09-01 06:32 51°14.332 2°55.139 14 24 16.3 101370 71
2008-09-01 06:33 51°14.422 2°54.915 17.9 315 16.4 101330 71
2008-09-01 06:34 51°14.414 2°54.642 21.8 330 16.6 101350 73
2008-09-01 06:35 51°14.34 2°54.381 22 333 16.6 101360 72
2008-09-01 06:36 51°14.251 2°54.121 20.4 335 16.5 101370 69
2008-09-01 06:37 51°14.156 2°53.85 19 335 16.6 101380 71
2008-09-01 06:38 51°14.055 2°53.586 20.3 333 16.6 101360 72
2008-09-01 06:39 51°13.958 2°53.319 18.4 337 16.6 101370 73
2008-09-01 06:40 51°13.86 2°53.061 17.2 340 16.6 101340 71
2008-09-01 06:41 51°13.763 2°52.796 16.8 278 16.6 101370 73
2008-09-01 06:42 51°13.666 2°52.529 21.1 337 16.5 101350 70
2008-09-01 06:43 51°13.566 2°52.265 18.8 336 16.6 101350 70
2008-09-01 06:44 51°13.465 2°51.99 20 337 16.5 101360 71
2008-09-01 06:45 51°13.359 2°51.712 16 284 16.5 101370 72
2008-09-01 06:46 51°13.255 2°51.431 18.8 338 16.5 101380 72
2008-09-01 06:47 51°13.152 2°51.146 15.7 335 16.6 101370 74
2008-09-01 06:48 51°13.049 2°50.862 19.2 280 16.6 101360 74
2008-09-01 06:49 51°12.945 2°50.579 18.2 339 16.6 101380 75
2008-09-01 06:50 51°12.84 2°50.296 16.3 339 16.6 101380 76
2008-09-01 06:51 51°12.741 2°50.01 16 337 16.5 101370 74
2008-09-01 06:52 51°12.657 2°49.71 18.7 278 16.5 101360 72
2008-09-01 06:53 51°12.577 2°49.404 19.4 334 16.5 101370 73
2008-09-01 06:54 51°12.494 2°49.1 17 337 16.5 101380 74
2008-09-01 06:55 51°12.411 2°48.794 20.1 338 16.4 101360 72
2008-09-01 06:56 51°12.327 2°48.491 18.7 336 16.4 101360 71
2008-09-01 06:57 51°12.241 2°48.187 17 334 16.5 101370 76
2008-09-01 06:58 51°12.158 2°47.882 19.1 334 16.4 101370 73
2008-09-01 06:59 51°12.073 2°47.577 19.7 331 16.4 101380 72
2008-09-01 07:00 51°11.989 2°47.27 20.7 335 16.5 101360 73
2008-09-01 07:01 51°11.909 2°46.96 18.1 336 16.4 101380 71
2008-09-01 07:02 51°11.827 2°46.65 17.2 335 16.4 101370 73
2008-09-01 07:03 51°11.748 2°46.336 17.5 336 16.5 101380 76
2008-09-01 07:04 51°11.663 2°46.027 20.1 337 16.5 101380 76
2008-09-01 07:05 51°11.584 2°45.713 18.4 336 16.4 101400 74
2008-09-01 07:06 51°11.502 2°45.403 20.4 334 16.5 101390 76
2008-09-01 07:07 51°11.421 2°45.092 16 332 16.4 101400 74
2008-09-01 07:08 51°11.347 2°44.775 20.7 331 16.5 101410 76
2008-09-01 07:09 51°11.279 2°44.454 17.6 332 16.4 101400 74
2008-09-01 07:10 51°11.209 2°44.138 19.8 331 16.4 101400 73
2008-09-01 07:11 51°11.147 2°43.816 18.5 333 16.5 101400 74
2008-09-01 07:12 51°11.088 2°43.492 17 329 16.4 101380 73
2008-09-01 07:13 51°11.037 2°43.166 20.2 332 16.4 101410 74
2008-09-01 07:14 51°10.995 2°42.836 16.4 332 16.4 101360 74
2008-09-01 07:15 51°10.949 2°42.507 19.7 331 16.4 101380 74
2008-09-01 07:16 51°10.9 2°42.18 17.9 332 16.4 101420 73
2008-09-01 07:17 51°10.855 2°41.853 18 332 16.4 101400 74
2008-09-01 07:18 51°10.812 2°41.524 18 333 16.4 101440 74
2008-09-01 07:19 51°10.767 2°41.194 16.8 330 16.4 101400 76
2008-09-01 07:20 51°10.731 2°40.883 16.4 331 16.4 101400 76
2008-09-01 07:21 51°10.696 2°40.671 14.7 329 16.4 101420 76
2008-09-01 07:22 51°10.708 2°40.574 12.7 24 16.3 101430 75
2008-09-01 07:23 51°10.711 2°40.562 14.4 261 16.5 101460 79
2008-09-01 07:24 51°10.709 2°40.562 9.6 266 16.4 101480 77
2008-09-01 07:25 51°10.707 2°40.562 8.7 266 16.3 101480 75
2008-09-01 07:26 51°10.705 2°40.56 9.5 263 16.3 101480 75
2008-09-01 07:27 51°10.703 2°40.558 10.8 262 16.3 101460 76
2008-09-01 07:28 51°10.7 2°40.556 14.8 259 16.4 101470 76
2008-09-01 07:29 51°10.696 2°40.554 8.3 261 16.4 101470 75
2008-09-01 07:30 51°10.692 2°40.554 12.3 262 16.4 101450 76
2008-09-01 07:31 51°10.687 2°40.553 9.5 264 16.3 101460 74
2008-09-01 07:32 51°10.713 2°40.566 9.6 30 16.5 101460 77
2008-09-01 07:33 51°10.821 2°40.711 5.5 269 16.4 101470 76
2008-09-01 07:34 51°10.954 2°40.911 8 268 16.3 101470 75
2008-09-01 07:35 51°11.069 2°41.133 9.1 25 16.3 101470 75
2008-09-01 07:36 51°11.182 2°41.359 7.4 25 16.3 101460 75
2008-09-01 07:37 51°11.294 2°41.585 8.1 267 16.4 101470 77
2008-09-01 07:38 51°11.408 2°41.821 7.4 24 16.4 101470 73
2008-09-01 07:39 51°11.518 2°42.052 7.6 24 16.3 101480 72
2008-09-01 07:40 51°11.634 2°42.29 6.7 20 16.4 101480 73
2008-09-01 07:41 51°11.746 2°42.52 8 266 16.3 101480 72
2008-09-01 07:42 51°11.863 2°42.744 8.2 270 16.4 101480 75
2008-09-01 07:43 51°11.982 2°42.962 6.1 269 16.5 101480 75
2008-09-01 07:44 51°12.101 2°43.181 5.7 269 16.5 101470 73
2008-09-01 07:45 51°12.214 2°43.401 7.9 29 16.4 101470 72
2008-09-01 07:46 51°12.331 2°43.621 6.9 270 16.4 101480 73
2008-09-01 07:47 51°12.447 2°43.842 5.6 77 16.4 101490 73
2008-09-01 07:48 51°12.562 2°44.062 7.3 29 16.4 101480 73
2008-09-01 07:49 51°12.679 2°44.279 5.6 30 16.4 101490 72
2008-09-01 07:50 51°12.794 2°44.497 8.3 21 16.5 101480 75
2008-09-01 07:51 51°12.91 2°44.718 7.6 27 16.4 101480 73
2008-09-01 07:52 51°13.031 2°44.933 9.2 23 16.4 101480 71
2008-09-01 07:53 51°13.156 2°45.139 7.2 21 16.4 101470 72
2008-09-01 07:54 51°13.29 2°45.326 6.7 264 16.5 101470 74
2008-09-01 07:55 51°13.442 2°45.466 13 256 16.5 101460 72
2008-09-01 07:56 51°13.618 2°45.532 12.5 254 16.5 101450 72
2008-09-01 07:57 51°13.793 2°45.572 12.4 257 16.5 101450 72
2008-09-01 07:58 51°13.975 2°45.609 14 254 16.6 101450 74
2008-09-01 07:59 51°14.155 2°45.648 12.5 252 16.6 101450 74
2008-09-01 08:00 51°14.333 2°45.687 15 255 16.5 101440 71
2008-09-01 08:01 51°14.512 2°45.698 11.7 252 16.5 101440 72
2008-09-01 08:02 51°14.691 2°45.685 14.4 21 16.5 101450 71
2008-09-01 08:03 51°14.876 2°45.677 12.4 246 16.5 101420 70
2008-09-01 08:04 51°15.057 2°45.67 15.1 252 16.6 101430 72
2008-09-01 08:05 51°15.237 2°45.66 13.1 249 16.6 101440 72
2008-09-01 08:06 51°15.419 2°45.647 12.2 248 16.6 101430 71
2008-09-01 08:07 51°15.6 2°45.637 13.3 246 16.6 101420 72
2008-09-01 08:08 51°15.783 2°45.634 15.6 253 16.6 101420 71
2008-09-01 08:09 51°15.966 2°45.637 13.8 252 16.5 101440 70
2008-09-01 08:10 51°16.141 2°45.642 12 250 16.5 101440 70
2008-09-01 08:11 51°16.318 2°45.648 10.9 248 16.6 101430 71
2008-09-01 08:12 51°16.491 2°45.65 11.9 248 16.6 101450 73
2008-09-01 08:13 51°16.663 2°45.652 10.8 247 16.6 101440 73
2008-09-01 08:14 51°16.836 2°45.639 11.7 243 16.7 101440 76
2008-09-01 08:15 51°17.007 2°45.628 9.5 244 16.7 101410 75
2008-09-01 08:16 51°17.179 2°45.608 13.7 249 16.6 101430 74
2008-09-01 08:17 51°17.354 2°45.578 14.6 247 16.5 101440 71
2008-09-01 08:18 51°17.528 2°45.546 12.8 248 16.4 101430 69
2008-09-01 08:19 51°17.703 2°45.509 15.3 24 16.5 101430 71
2008-09-01 08:20 51°17.874 2°45.474 13.5 23 16.5 101420 71
2008-09-01 08:21 51°18.05 2°45.436 9.9 246 16.5 101440 71
2008-09-01 08:22 51°18.22 2°45.398 15.9 247 16.5 101420 71
2008-09-01 08:23 51°18.396 2°45.356 13.9 249 16.4 101420 71
2008-09-01 08:24 51°18.569 2°45.328 11.5 23 16.5 101450 72
2008-09-01 08:25 51°18.744 2°45.304 14 252 16.5 101430 71
2008-09-01 08:26 51°18.917 2°45.287 13.6 253 16.4 101430 70
2008-09-01 08:27 51°19.093 2°45.283 11.6 254 16.5 101440 72
2008-09-01 08:28 51°19.233 2°45.293 7.4 264 16.5 101460 72
2008-09-01 08:29 51°19.295 2°45.318 8.6 270 16.4 101470 71
2008-09-01 08:30 51°19.347 2°45.336 9 28 16.5 101460 75
2008-09-01 08:31 51°19.362 2°45.337 9.7 268 16.4 101450 74
2008-09-01 08:32 51°19.363 2°45.322 12.3 260 16.5 101460 75
2008-09-01 08:33 51°19.36 2°45.306 12.5 255 16.4 101460 73
2008-09-01 08:34 51°19.356 2°45.296 11.3 258 16.4 101460 72
2008-09-01 08:35 51°19.35 2°45.282 12.5 255 16.4 101450 73
2008-09-01 08:36 51°19.438 2°45.284 5.8 266 16.4 101440 72
2008-09-01 08:37 51°19.589 2°45.369 6.4 263 16.4 101470 74
2008-09-01 08:38 51°19.757 2°45.441 11.7 255 16.4 101480 74
2008-09-01 08:39 51°19.929 2°45.491 14 255 16.5 101480 73
2008-09-01 08:40 51°20.093 2°45.569 8.7 259 16.5 101460 73
2008-09-01 08:41 51°20.231 2°45.653 5.3 265 16.5 101470 73
2008-09-01 08:42 51°20.284 2°45.659 9.3 260 16.5 101470 74
2008-09-01 08:43 51°20.282 2°45.638 12.5 254 16.5 101460 72
2008-09-01 08:44 51°20.274 2°45.622 11.5 257 16.5 101460 73
2008-09-01 08:45 51°20.263 2°45.608 12 259 16.5 101460 74
2008-09-01 08:46 51°20.251 2°45.594 8.3 262 16.5 101470 74
2008-09-01 08:47 51°20.239 2°45.581 8.7 260 16.5 101470 74
2008-09-01 08:48 51°20.226 2°45.57 7.2 263 16.4 101470 73
2008-09-01 08:49 51°20.213 2°45.558 8.6 266 16.5 101480 73
2008-09-01 08:50 51°20.205 2°45.544 13.7 261 16.4 101470 72
2008-09-01 08:51 51°20.255 2°45.488 10.5 255 16.5 101470 75
2008-09-01 08:52 51°20.371 2°45.499 13.7 257 16.6 101480 76
2008-09-01 08:53 51°20.541 2°45.518 10.8 251 16.5 101480 74
2008-09-01 08:54 51°20.713 2°45.543 12.2 252 16.6 101470 73
2008-09-01 08:55 51°20.889 2°45.57 10.8 256 16.5 101470 70
2008-09-01 08:56 51°21.065 2°45.601 12.3 255 16.6 101480 73
2008-09-01 08:57 51°21.243 2°45.632 12.9 257 16.6 101490 72
2008-09-01 08:58 51°21.422 2°45.667 11.6 256 16.6 101480 71
2008-09-01 08:59 51°21.6 2°45.703 9.6 252 16.6 101490 72
2008-09-01 09:00 51°21.777 2°45.744 10.6 251 16.6 101480 71
2008-09-01 09:01 51°21.948 2°45.78 14 254 16.6 101480 70
2008-09-01 09:02 51°22.123 2°45.828 12.3 258 16.7 101480 72
2008-09-01 09:03 51°22.285 2°45.914 10.5 261 16.6 101490 70
2008-09-01 09:04 51°22.444 2°46.013 5.9 263 16.6 101490 72
2008-09-01 09:05 51°22.601 2°46.116 7.4 262 16.7 101490 74
2008-09-01 09:06 51°22.758 2°46.231 6.9 258 16.6 101490 72
2008-09-01 09:07 51°22.916 2°46.345 9.5 261 16.6 101480 72
2008-09-01 09:08 51°23.075 2°46.451 9.3 260 16.6 101480 71
2008-09-01 09:09 51°23.231 2°46.565 5.7 267 16.5 101500 71
2008-09-01 09:10 51°23.387 2°46.68 4.6 264 16.5 101490 72
2008-09-01 09:11 51°23.546 2°46.789 5.1 265 16.5 101500 72
2008-09-01 09:12 51°23.706 2°46.896 9.5 253 16.6 101490 73
2008-09-01 09:13 51°23.866 2°46.998 7.3 261 16.6 101510 72
2008-09-01 09:14 51°24.023 2°47.106 6.8 264 16.5 101490 71
2008-09-01 09:15 51°24.179 2°47.219 5.2 266 16.5 101490 71
2008-09-01 09:16 51°24.333 2°47.334 6.4 263 16.5 101500 70
2008-09-01 09:17 51°24.489 2°47.453 6.4 263 16.6 101500 73
2008-09-01 09:18 51°24.645 2°47.566 4 260 16.6 101510 73
2008-09-01 09:19 51°24.798 2°47.686 6.6 259 16.7 101500 74
2008-09-01 09:20 51°24.952 2°47.808 4.6 260 16.6 101490 73
2008-09-01 09:21 51°25.106 2°47.931 5 263 16.7 101510 75
2008-09-01 09:22 51°25.26 2°48.053 5.2 265 16.7 101500 74
2008-09-01 09:23 51°25.418 2°48.179 7.6 257 16.6 101490 72
2008-09-01 09:24 51°25.574 2°48.303 5.6 266 16.6 101490 74
2008-09-01 09:25 51°25.727 2°48.432 6 267 16.6 101490 72
2008-09-01 09:26 51°25.88 2°48.551 6.8 270 16.6 101500 72
2008-09-01 09:27 51°26.029 2°48.691 4.4 32 16.6 101490 74
2008-09-01 09:28 51°26.181 2°48.819 3.8 266 16.7 101490 74
2008-09-01 09:29 51°26.332 2°48.949 5.5 265 16.6 101490 73
2008-09-01 09:30 51°26.475 2°49.072 6.3 270 16.6 101490 73
2008-09-01 09:31 51°26.574 2°49.153 8.4 26 16.6 101490 72
2008-09-01 09:32 51°26.615 2°49.214 10.1 23 16.6 101500 75
2008-09-01 09:33 51°26.677 2°49.297 7.3 28 16.6 101490 74
2008-09-01 09:34 51°26.748 2°49.399 8.6 24 16.5 101500 71
2008-09-01 09:35 51°26.787 2°49.403 7.1 262 16.5 101490 72
2008-09-01 09:36 51°26.776 2°49.386 8.8 261 16.7 101480 74
2008-09-01 09:37 51°26.754 2°49.376 7.7 265 16.6 101490 73
2008-09-01 09:38 51°26.733 2°49.364 8.4 269 16.6 101490 72
2008-09-01 09:39 51°26.715 2°49.352 7.3 268 16.6 101490 72
2008-09-01 09:40 51°26.7 2°49.34 7.5 262 16.7 101490 75
2008-09-01 09:41 51°26.7 2°49.322 9.4 270 16.6 101490 71
2008-09-01 09:42 51°26.743 2°49.375 8 44 16.6 101500 72
2008-09-01 09:43 51°26.671 2°49.496 11.4 10 16.7 101490 72
2008-09-01 09:44 51°26.542 2°49.619 12.1 11 16.7 101470 71
2008-09-01 09:45 51°26.396 2°49.767 13.7 9 16.6 101460 72
2008-09-01 09:46 51°26.242 2°49.921 11.3 7 16.6 101460 72
2008-09-01 09:47 51°26.089 2°50.076 12.2 11 16.6 101470 72
2008-09-01 09:48 51°25.929 2°50.226 11.4 357 16.6 101480 74
2008-09-01 09:49 51°25.737 2°50.329 13.1 357 16.6 101470 74
2008-09-01 09:50 51°25.536 2°50.413 13.3 -999 16.6 101460 74
2008-09-01 09:51 51°25.339 2°50.511 14.2 356 16.5 101460 72
2008-09-01 09:52 51°25.141 2°50.609 12.3 4 16.5 101460 74
2008-09-01 09:53 51°24.948 2°50.722 11.6 5 16.5 101450 71
2008-09-01 09:54 51°24.756 2°50.836 12.5 6 16.6 101490 72
2008-09-01 09:55 51°24.564 2°50.952 11.3 7 16.6 101460 72
2008-09-01 09:56 51°24.37 2°51.064 11.3 358 16.7 101480 73
2008-09-01 09:57 51°24.171 2°51.163 15 359 16.7 101480 73
2008-09-01 09:58 51°23.973 2°51.262 12.2 359 16.6 101470 73
2008-09-01 09:59 51°23.798 2°51.365 10.8 7 16.6 101470 72
2008-09-01 10:00 51°23.695 2°51.415 16 11 16.6 101490 73
2008-09-01 10:01 51°23.608 2°51.447 12.9 4 16.6 101490 71
2008-09-01 10:02 51°23.53 2°51.456 12.3 23 16.7 101490 73
2008-09-01 10:03 51°23.488 2°51.485 9 20 16.6 101510 69
2008-09-01 10:04 51°23.48 2°51.478 8.9 33 16.7 101510 70
2008-09-01 10:05 51°23.468 2°51.474 13.2 32 16.8 101500 73
2008-09-01 10:06 51°23.454 2°51.473 10.8 31 16.6 101490 69
2008-09-01 10:07 51°23.438 2°51.472 12.1 19 16.7 101510 72
2008-09-01 10:08 51°23.37 2°51.488 13.3 1 16.8 101490 75
2008-09-01 10:09 51°23.226 2°51.497 14.5 -999 16.7 101490 73
2008-09-01 10:10 51°23.105 2°51.528 14 16 16.7 101490 74
2008-09-01 10:11 51°23.042 2°51.631 9.1 27 16.6 101510 73
2008-09-01 10:12 51°22.967 2°51.733 10.7 19 16.7 101500 76
2008-09-01 10:13 51°22.862 2°51.831 14.6 10 16.8 101500 76
2008-09-01 10:14 51°22.706 2°51.965 11.7 1 16.7 101490 73
2008-09-01 10:15 51°22.506 2°52.009 15.2 353 16.7 101480 74
2008-09-01 10:16 51°22.302 2°51.935 16.4 280 16.8 101470 76
2008-09-01 10:17 51°22.096 2°51.855 16.2 354 16.7 101470 74
2008-09-01 10:18 51°21.89 2°51.798 16.2 355 16.7 101470 77
2008-09-01 10:19 51°21.681 2°51.748 14.3 354 16.6 101470 77
2008-09-01 10:20 51°21.472 2°51.704 16.6 354 16.7 101480 78
2008-09-01 10:21 51°21.262 2°51.657 15.4 352 16.7 101470 77
2008-09-01 10:22 51°21.054 2°51.613 14.7 351 16.7 101470 76
2008-09-01 10:23 51°20.847 2°51.57 17.6 353 16.8 101470 76
2008-09-01 10:24 51°20.641 2°51.531 15.7 351 16.9 101470 78
2008-09-01 10:25 51°20.435 2°51.491 14.9 348 16.9 101470 75
2008-09-01 10:26 51°20.229 2°51.459 15.1 353 16.9 101480 76
2008-09-01 10:27 51°20.022 2°51.431 14.3 348 16.9 101480 78
2008-09-01 10:28 51°19.812 2°51.405 14.9 352 17 101470 78
2008-09-01 10:29 51°19.603 2°51.374 17 279 16.9 101500 79
2008-09-01 10:30 51°19.392 2°51.35 14.9 346 16.8 101490 77
2008-09-01 10:31 51°19.179 2°51.336 14.2 284 16.8 101490 77
2008-09-01 10:32 51°18.967 2°51.324 13.3 278 16.8 101500 76
2008-09-01 10:33 51°18.753 2°51.323 14.6 279 16.9 101510 79
2008-09-01 10:34 51°18.54 2°51.324 15.3 283 16.8 101490 78
2008-09-01 10:35 51°18.33 2°51.324 15.2 281 16.9 101500 78
2008-09-01 10:36 51°18.119 2°51.328 13 350 16.8 101490 75
2008-09-01 10:37 51°17.91 2°51.333 13.5 279 16.9 101510 77
2008-09-01 10:38 51°17.7 2°51.346 12.1 275 16.9 101500 78
2008-09-01 10:39 51°17.495 2°51.362 14.6 348 16.9 101500 78
2008-09-01 10:40 51°17.289 2°51.38 14.9 278 16.9 101490 76
2008-09-01 10:41 51°17.084 2°51.383 13.2 284 16.9 101500 74
2008-09-01 10:42 51°16.884 2°51.301 14 280 17 101510 76
2008-09-01 10:43 51°16.686 2°51.206 14.1 276 17.1 101500 75
2008-09-01 10:44 51°16.487 2°51.116 13.1 280 17.1 101510 74
2008-09-01 10:45 51°16.287 2°51.036 12.1 276 17.2 101520 75
2008-09-01 10:46 51°16.085 2°50.967 13.2 281 17.2 101510 75
2008-09-01 10:47 51°15.884 2°50.898 11.9 275 17.2 101520 75
2008-09-01 10:48 51°15.683 2°50.833 12.6 280 17.2 101510 74
2008-09-01 10:49 51°15.483 2°50.765 11.8 281 17.2 101530 74
2008-09-01 10:50 51°15.283 2°50.696 12 280 17.2 101530 72
2008-09-01 10:51 51°15.083 2°50.63 12.6 280 17.2 101520 73
2008-09-01 10:52 51°14.883 2°50.562 12.5 280 17.2 101520 74
2008-09-01 10:53 51°14.683 2°50.494 12.6 342 17.2 101520 72
2008-09-01 10:54 51°14.509 2°50.43 11.5 279 17.2 101530 73
2008-09-01 10:55 51°14.389 2°50.392 10.3 347 17.2 101530 73
2008-09-01 10:56 51°14.283 2°50.366 9.1 281 17.1 101530 73
2008-09-01 10:57 51°14.182 2°50.339 10 355 17.1 101520 71
2008-09-01 10:58 51°14.133 2°50.328 6.2 2 17.1 101530 72
2008-09-01 10:59 51°14.128 2°50.34 6.8 7 17.2 101540 74
2008-09-01 11:00 51°14.123 2°50.352 6.9 17 17.1 101540 72
2008-09-01 11:01 51°14.116 2°50.368 7.8 24 17.2 101540 72
2008-09-01 11:02 51°14.107 2°50.386 8.2 24 17.3 101540 74
2008-09-01 11:03 51°14.099 2°50.484 2.8 77 17.3 101550 73
2008-09-01 11:04 51°14.158 2°50.723 0.9 38 17.5 101560 72
2008-09-01 11:05 51°14.218 2°51.016 1.8 23 17.5 101560 71
2008-09-01 11:06 51°14.272 2°51.321 1.1 3 17.6 101560 71
2008-09-01 11:07 51°14.327 2°51.628 0.4 16 17.7 101550 72
2008-09-01 11:08 51°14.382 2°51.936 1.1 19 17.8 101560 72
2008-09-01 11:09 51°14.436 2°52.248 0.6 22 17.8 101560 72
2008-09-01 11:10 51°14.472 2°52.569 1.2 23 17.8 101560 71
2008-09-01 11:11 51°14.507 2°52.879 2.4 26 17.7 101560 70
2008-09-01 11:12 51°14.512 2°53.09 3.9 39 17.7 101550 70
2008-09-01 11:13 51°14.517 2°53.238 3.3 76 17.7 101550 71
2008-09-01 11:14 51°14.526 2°53.37 3.8 83 17.6 101560 72
2008-09-01 11:15 51°14.53 2°53.502 5.1 27 17.6 101550 72
2008-09-01 11:16 51°14.534 2°53.632 4.7 27 17.5 101550 72
2008-09-01 11:17 51°14.534 2°53.764 5.9 44 17.5 101550 72
2008-09-01 11:18 51°14.53 2°53.873 7.3 35 17.6 101550 73
2008-09-01 11:19 51°14.521 2°53.949 6 37 17.6 101540 74
2008-09-01 11:20 51°14.512 2°54.008 7.1 31 17.6 101550 74
2008-09-01 11:21 51°14.498 2°54.098 6.1 42 17.6 101550 75
2008-09-01 11:22 51°14.496 2°54.251 4.8 35 17.5 101550 72
2008-09-01 11:23 51°14.481 2°54.441 4.2 30 17.5 101550 71
2008-09-01 11:24 51°14.457 2°54.607 4.9 25 17.6 101550 73
2008-09-01 11:25 51°14.413 2°54.854 5.4 18 17.6 101550 72
2008-09-01 11:26 51°14.32 2°55.134 4.7 5 17.7 101550 72
2008-09-01 11:27 51°14.186 2°55.355 6.9 3 17.7 101550 73
2008-09-01 11:28 51°14.072 2°55.458 4.8 355 17.8 101550 69
2008-09-01 11:29 51°13.98 2°55.529 4.6 352 18 101550 68
2008-09-01 11:30 51°13.86 2°55.619 9.6 283 18 101550 64
2008-09-01 11:31 51°13.762 2°55.706 4.9 11 18.1 101550 64